createdAt,value
2018-06-28T00:00:08.389Z,13.70
2018-06-28T00:01:10.582Z,13.70
2018-06-28T00:02:06.018Z,13.70
2018-06-28T00:03:06.037Z,13.80
2018-06-28T00:04:10.741Z,13.80
2018-06-28T00:05:13.272Z,13.80
2018-06-28T00:06:05.918Z,13.80
2018-06-28T00:07:05.613Z,13.80
2018-06-28T00:08:05.296Z,13.80
2018-06-28T00:09:06.007Z,13.80
2018-06-28T00:10:05.759Z,13.80
2018-06-28T00:11:06.168Z,13.80
2018-06-28T00:12:08.580Z,13.80
2018-06-28T00:13:06.182Z,13.80
2018-06-28T00:14:06.164Z,13.80
2018-06-28T00:15:05.790Z,13.80
2018-06-28T00:16:05.447Z,13.80
2018-06-28T00:17:10.706Z,13.80
2018-06-28T00:18:05.172Z,13.80
2018-06-28T00:19:05.315Z,13.80
2018-06-28T00:20:05.312Z,13.80
2018-06-28T00:21:05.990Z,13.80
2018-06-28T00:22:05.520Z,13.80
2018-06-28T00:23:05.328Z,13.80
2018-06-28T00:24:11.128Z,13.70
2018-06-28T00:25:05.366Z,13.70
2018-06-28T00:26:06.611Z,13.70
2018-06-28T00:27:07.760Z,13.70
2018-06-28T00:28:05.308Z,13.70
2018-06-28T00:29:05.984Z,13.70
2018-06-28T00:30:05.624Z,13.70
2018-06-28T00:31:05.828Z,13.70
2018-06-28T00:32:05.560Z,13.60
2018-06-28T00:33:08.597Z,13.60
2018-06-28T00:34:05.395Z,13.60
2018-06-28T00:35:10.382Z,13.60
2018-06-28T00:36:07.796Z,13.60
2018-06-28T00:37:07.793Z,13.50
2018-06-28T00:38:07.921Z,13.50
2018-06-28T00:39:05.470Z,13.50
2018-06-28T00:40:06.782Z,13.50
2018-06-28T00:41:10.497Z,13.50
2018-06-28T00:42:08.672Z,13.50
2018-06-28T00:43:05.870Z,13.50
2018-06-28T00:44:05.605Z,13.50
2018-06-28T00:45:10.479Z,13.50
2018-06-28T00:46:05.715Z,13.50
2018-06-28T00:47:05.486Z,13.50
2018-06-28T00:48:07.088Z,13.50
2018-06-28T00:49:05.580Z,13.40
2018-06-28T00:50:05.420Z,13.40
2018-06-28T00:51:05.437Z,13.40
2018-06-28T00:52:05.286Z,13.40
2018-06-28T00:53:05.963Z,13.40
2018-06-28T00:54:10.432Z,13.40
2018-06-28T00:55:08.638Z,13.40
2018-06-28T00:56:06.079Z,13.40
2018-06-28T00:57:05.978Z,13.40
2018-06-28T00:58:06.111Z,13.40
2018-06-28T00:59:06.140Z,13.40
2018-06-28T01:00:05.760Z,13.40
2018-06-28T01:01:05.620Z,13.40
2018-06-28T01:02:10.268Z,13.40
2018-06-28T01:03:05.746Z,13.40
2018-06-28T01:04:05.661Z,13.40
2018-06-28T01:05:08.324Z,13.30
2018-06-28T01:06:08.127Z,13.30
2018-06-28T01:07:08.285Z,13.30
2018-06-28T01:08:08.343Z,13.30
2018-06-28T01:09:05.922Z,13.30
2018-06-28T01:10:05.638Z,13.30
2018-06-28T01:11:05.472Z,13.30
2018-06-28T01:12:06.038Z,13.30
2018-06-28T01:13:05.848Z,13.30
2018-06-28T01:14:08.052Z,13.30
2018-06-28T01:15:08.248Z,13.20
2018-06-28T01:16:06.031Z,13.20
2018-06-28T01:17:10.912Z,13.20
2018-06-28T01:18:08.085Z,13.20
2018-06-28T01:19:05.810Z,13.20
2018-06-28T01:20:05.353Z,13.20
2018-06-28T01:21:11.035Z,13.20
2018-06-28T01:22:08.034Z,13.20
2018-06-28T01:23:10.583Z,13.20
2018-06-28T01:24:08.550Z,13.20
2018-06-28T01:25:05.993Z,13.20
2018-06-28T01:26:05.551Z,13.20
2018-06-28T01:27:05.229Z,13.20
2018-06-28T01:28:06.348Z,13.20
2018-06-28T01:29:06.526Z,13.20
2018-06-28T01:30:05.446Z,13.10
2018-06-28T01:31:05.632Z,13.20
2018-06-28T01:32:05.932Z,13.20
2018-06-28T01:33:05.822Z,13.20
2018-06-28T01:34:06.049Z,13.20
2018-06-28T01:35:08.126Z,13.20
2018-06-28T01:36:08.141Z,13.20
2018-06-28T01:37:05.501Z,13.20
2018-06-28T01:38:08.110Z,13.20
2018-06-28T01:39:05.575Z,13.20
2018-06-28T01:40:05.699Z,13.10
2018-06-28T01:41:05.554Z,13.20
2018-06-28T01:42:05.215Z,13.10
2018-06-28T01:43:05.125Z,13.10
2018-06-28T01:44:10.894Z,13.10
2018-06-28T01:45:05.356Z,13.20
2018-06-28T01:46:11.106Z,13.10
2018-06-28T01:47:08.052Z,13.10
2018-06-28T01:48:08.211Z,13.10
2018-06-28T01:49:08.370Z,13.10
2018-06-28T01:50:08.534Z,13.10
2018-06-28T01:51:06.082Z,13.10
2018-06-28T01:52:06.026Z,13.10
2018-06-28T01:53:05.288Z,13.10
2018-06-28T01:54:08.196Z,13.10
2018-06-28T01:55:05.601Z,13.10
2018-06-28T01:56:08.066Z,13.10
2018-06-28T01:57:08.293Z,13.10
2018-06-28T01:58:08.387Z,13.10
2018-06-28T01:59:05.979Z,13.10
2018-06-28T02:00:05.929Z,13.10
2018-06-28T02:01:08.053Z,13.10
2018-06-28T02:02:05.941Z,13.10
2018-06-28T02:03:08.095Z,13.10
2018-06-28T02:04:05.572Z,13.10
2018-06-28T02:05:05.477Z,13.10
2018-06-28T02:06:10.233Z,13.10
2018-06-28T02:07:05.713Z,13.00
2018-06-28T02:08:08.138Z,13.00
2018-06-28T02:09:06.058Z,13.00
2018-06-28T02:10:08.199Z,13.10
2018-06-28T02:11:08.291Z,13.10
2018-06-28T02:12:11.882Z,13.00
2018-06-28T02:13:05.369Z,13.00
2018-06-28T02:14:08.505Z,13.00
2018-06-28T02:15:06.040Z,13.00
2018-06-28T02:16:05.701Z,13.00
2018-06-28T02:17:10.448Z,12.90
2018-06-28T02:18:05.912Z,12.90
2018-06-28T02:19:06.013Z,12.90
2018-06-28T02:20:06.094Z,12.90
2018-06-28T02:21:08.317Z,12.90
2018-06-28T02:22:08.370Z,12.90
2018-06-28T02:23:08.383Z,12.90
2018-06-28T02:24:08.456Z,13.00
2018-06-28T02:25:05.788Z,12.90
2018-06-28T02:26:15.388Z,12.90
2018-06-28T02:27:05.978Z,12.90
2018-06-28T02:28:05.544Z,12.90
2018-06-28T02:29:05.188Z,13.00
2018-06-28T02:30:10.826Z,12.90
2018-06-28T02:31:05.381Z,12.90
2018-06-28T02:32:11.101Z,13.00
2018-06-28T02:33:06.349Z,13.00
2018-06-28T02:34:11.175Z,13.00
2018-06-28T02:35:05.722Z,13.00
2018-06-28T02:36:06.079Z,13.00
2018-06-28T02:37:06.126Z,13.00
2018-06-28T02:38:05.376Z,13.00
2018-06-28T02:39:05.981Z,13.00
2018-06-28T02:40:05.585Z,13.10
2018-06-28T02:41:05.128Z,13.10
2018-06-28T02:42:05.718Z,13.10
2018-06-28T02:43:08.098Z,13.10
2018-06-28T02:44:05.667Z,13.10
2018-06-28T02:45:07.927Z,13.10
2018-06-28T02:46:05.593Z,13.10
2018-06-28T02:47:10.473Z,13.10
2018-06-28T02:48:05.893Z,13.10
2018-06-28T02:49:05.625Z,13.10
2018-06-28T02:50:05.361Z,13.10
2018-06-28T02:51:05.999Z,13.10
2018-06-28T02:52:05.738Z,13.10
2018-06-28T02:53:08.095Z,13.20
2018-06-28T02:54:05.688Z,13.20
2018-06-28T02:55:05.947Z,13.20
2018-06-28T02:56:06.505Z,13.20
2018-06-28T02:57:06.076Z,13.20
2018-06-28T02:58:05.770Z,13.20
2018-06-28T02:59:05.356Z,13.20
2018-06-28T03:00:08.650Z,13.20
2018-06-28T03:01:07.652Z,13.20
2018-06-28T03:02:05.142Z,13.20
2018-06-28T03:03:05.728Z,13.20
2018-06-28T03:04:06.443Z,13.20
2018-06-28T03:05:06.152Z,13.20
2018-06-28T03:06:08.391Z,13.20
2018-06-28T03:07:06.090Z,13.20
2018-06-28T03:08:05.605Z,13.20
2018-06-28T03:09:05.472Z,13.20
2018-06-28T03:10:08.582Z,13.30
2018-06-28T03:11:06.223Z,13.20
2018-06-28T03:12:05.990Z,13.20
2018-06-28T03:13:05.985Z,13.20
2018-06-28T03:14:06.094Z,13.30
2018-06-28T03:15:06.235Z,13.20
2018-06-28T03:16:05.427Z,13.20
2018-06-28T03:17:05.377Z,13.20
2018-06-28T03:18:05.326Z,13.20
2018-06-28T03:19:11.135Z,13.30
2018-06-28T03:20:05.595Z,13.20
2018-06-28T03:21:10.417Z,13.20
2018-06-28T03:22:08.329Z,13.20
2018-06-28T03:23:08.407Z,13.20
2018-06-28T03:24:05.859Z,13.20
2018-06-28T03:25:07.934Z,13.20
2018-06-28T03:26:05.394Z,13.20
2018-06-28T03:27:05.974Z,13.20
2018-06-28T03:28:05.557Z,13.20
2018-06-28T03:29:08.141Z,13.20
2018-06-28T03:30:05.753Z,13.20
2018-06-28T03:31:05.500Z,13.20
2018-06-28T03:32:05.457Z,13.20
2018-06-28T03:33:08.017Z,13.20
2018-06-28T03:34:06.094Z,13.20
2018-06-28T03:35:06.202Z,13.20
2018-06-28T03:36:05.854Z,13.20
2018-06-28T03:37:05.578Z,13.10
2018-06-28T03:38:05.658Z,13.10
2018-06-28T03:39:10.910Z,13.10
2018-06-28T03:40:05.966Z,13.10
2018-06-28T03:41:05.615Z,13.10
2018-06-28T03:42:05.645Z,13.10
2018-06-28T03:43:05.488Z,13.10
2018-06-28T03:44:06.077Z,13.10
2018-06-28T03:45:05.818Z,13.20
2018-06-28T03:46:08.034Z,13.30
2018-06-28T03:47:05.694Z,13.30
2018-06-28T03:48:05.470Z,13.30
2018-06-28T03:49:06.067Z,13.40
2018-06-28T03:50:05.649Z,13.40
2018-06-28T03:51:10.369Z,13.50
2018-06-28T03:52:05.925Z,13.50
2018-06-28T03:53:05.576Z,13.50
2018-06-28T03:54:05.269Z,13.60
2018-06-28T03:55:05.884Z,13.60
2018-06-28T03:56:05.511Z,13.60
2018-06-28T03:57:05.469Z,13.70
2018-06-28T03:58:05.571Z,13.70
2018-06-28T03:59:05.678Z,13.80
2018-06-28T04:00:05.842Z,13.80
2018-06-28T04:01:08.514Z,14.00
2018-06-28T04:02:05.984Z,14.00
2018-06-28T04:03:11.760Z,14.10
2018-06-28T04:04:05.752Z,14.10
2018-06-28T04:05:07.793Z,14.20
2018-06-28T04:06:05.862Z,14.10
2018-06-28T04:07:10.456Z,14.20
2018-06-28T04:08:05.835Z,14.20
2018-06-28T04:09:10.500Z,14.30
2018-06-28T04:10:10.331Z,14.30
2018-06-28T04:11:08.096Z,14.40
2018-06-28T04:12:08.025Z,14.50
2018-06-28T04:13:05.216Z,14.50
2018-06-28T04:14:06.173Z,14.60
2018-06-28T04:15:06.370Z,14.70
2018-06-28T04:16:05.500Z,14.80
2018-06-28T04:17:05.285Z,14.90
2018-06-28T04:18:10.820Z,15.20
2018-06-28T04:19:08.526Z,15.30
2018-06-28T04:20:06.034Z,15.30
2018-06-28T04:21:05.770Z,15.40
2018-06-28T04:22:05.442Z,15.50
2018-06-28T04:23:06.122Z,15.50
2018-06-28T04:24:05.733Z,15.60
2018-06-28T04:25:11.347Z,15.80
2018-06-28T04:26:05.859Z,15.80
2018-06-28T04:27:05.934Z,15.90
2018-06-28T04:28:10.936Z,16.00
2018-06-28T04:29:08.543Z,16.20
2018-06-28T04:30:05.319Z,16.20
2018-06-28T04:31:11.032Z,16.30
2018-06-28T04:32:08.773Z,16.50
2018-06-28T04:33:07.997Z,16.60
2018-06-28T04:34:08.089Z,16.60
2018-06-28T04:35:05.750Z,16.60
2018-06-28T04:36:05.590Z,16.60
2018-06-28T04:37:05.773Z,16.70
2018-06-28T04:38:05.979Z,16.70
2018-06-28T04:39:05.950Z,16.80
2018-06-28T04:40:05.617Z,16.80
2018-06-28T04:41:08.120Z,16.90
2018-06-28T04:42:08.136Z,17.00
2018-06-28T04:43:05.804Z,16.90
2018-06-28T04:44:05.770Z,16.90
2018-06-28T04:45:07.831Z,17.00
2018-06-28T04:46:05.325Z,17.00
2018-06-28T04:47:06.111Z,17.10
2018-06-28T04:48:08.742Z,17.20
2018-06-28T04:49:05.193Z,17.20
2018-06-28T04:50:05.744Z,17.20
2018-06-28T04:51:05.475Z,17.40
2018-06-28T04:52:08.371Z,17.50
2018-06-28T04:53:05.781Z,17.50
2018-06-28T04:54:08.423Z,17.60
2018-06-28T04:55:05.877Z,17.60
2018-06-28T04:56:06.106Z,17.70
2018-06-28T04:57:08.319Z,17.80
2018-06-28T04:58:11.971Z,17.80
2018-06-28T04:59:05.444Z,17.90
2018-06-28T05:00:12.982Z,18.10
2018-06-28T05:01:05.498Z,18.10
2018-06-28T05:02:10.432Z,18.20
2018-06-28T05:03:08.166Z,18.30
2018-06-28T05:04:05.632Z,18.40
2018-06-28T05:05:05.812Z,18.40
2018-06-28T05:06:05.466Z,18.60
2018-06-28T05:07:06.148Z,18.60
2018-06-28T05:08:06.497Z,18.70
2018-06-28T05:09:10.381Z,18.90
2018-06-28T05:10:05.875Z,18.90
2018-06-28T05:11:05.723Z,19.00
2018-06-28T05:12:07.923Z,19.10
2018-06-28T05:13:10.607Z,19.10
2018-06-28T05:14:10.273Z,19.30
2018-06-28T05:15:05.790Z,19.30
2018-06-28T05:16:08.421Z,19.30
2018-06-28T05:17:06.050Z,19.30
2018-06-28T05:18:05.689Z,19.40
2018-06-28T05:19:05.894Z,19.40
2018-06-28T05:20:08.138Z,19.50
2018-06-28T05:21:10.727Z,19.50
2018-06-28T05:22:05.263Z,19.50
2018-06-28T05:23:05.128Z,19.60
2018-06-28T05:24:05.916Z,19.60
2018-06-28T05:25:05.999Z,19.60
2018-06-28T05:26:08.126Z,19.70
2018-06-28T05:27:06.241Z,19.70
2018-06-28T05:28:08.017Z,19.80
2018-06-28T05:29:10.674Z,19.80
2018-06-28T05:30:05.673Z,19.80
2018-06-28T05:31:05.309Z,19.80
2018-06-28T05:32:05.879Z,19.90
2018-06-28T05:33:10.732Z,20.00
2018-06-28T05:34:05.204Z,20.00
2018-06-28T05:35:05.363Z,20.00
2018-06-28T05:36:06.523Z,20.10
2018-06-28T05:37:10.184Z,20.20
2018-06-28T05:38:05.667Z,20.20
2018-06-28T05:39:05.567Z,20.20
2018-06-28T05:40:11.030Z,20.20
2018-06-28T05:41:13.447Z,20.10
2018-06-28T05:42:08.414Z,20.20
2018-06-28T05:43:08.592Z,20.20
2018-06-28T05:44:06.234Z,20.20
2018-06-28T05:45:11.070Z,20.20
2018-06-28T05:46:05.669Z,20.30
2018-06-28T05:47:05.604Z,20.40
2018-06-28T05:48:10.390Z,20.50
2018-06-28T05:49:05.955Z,20.50
2018-06-28T05:50:08.194Z,20.50
2018-06-28T05:51:06.113Z,20.50
2018-06-28T05:52:05.859Z,20.50
2018-06-28T05:53:05.457Z,20.50
2018-06-28T05:54:05.219Z,20.50
2018-06-28T05:55:05.452Z,20.40
2018-06-28T05:56:10.799Z,20.30
2018-06-28T05:57:06.999Z,20.30
2018-06-28T05:58:05.846Z,20.30
2018-06-28T05:59:05.816Z,20.30
2018-06-28T06:00:05.461Z,20.30
2018-06-28T06:01:07.802Z,20.30
2018-06-28T06:02:05.412Z,20.30
2018-06-28T06:03:05.251Z,20.50
2018-06-28T06:04:05.298Z,20.60
2018-06-28T06:05:05.633Z,20.70
2018-06-28T06:06:10.332Z,20.80
2018-06-28T06:07:05.705Z,21.00
2018-06-28T06:08:05.329Z,21.10
2018-06-28T06:09:05.917Z,21.20
2018-06-28T06:10:05.552Z,21.30
2018-06-28T06:11:05.330Z,21.40
2018-06-28T06:12:05.187Z,21.60
2018-06-28T06:13:06.063Z,21.70
2018-06-28T06:14:10.931Z,21.80
2018-06-28T06:15:05.333Z,21.80
2018-06-28T06:16:06.016Z,21.90
2018-06-28T06:17:06.757Z,21.90
2018-06-28T06:18:07.982Z,22.00
2018-06-28T06:19:05.569Z,22.00
2018-06-28T06:20:05.129Z,22.10
2018-06-28T06:21:13.654Z,22.20
2018-06-28T06:22:07.735Z,22.40
2018-06-28T06:23:05.807Z,22.40
2018-06-28T06:24:06.119Z,22.50
2018-06-28T06:25:05.921Z,22.60
2018-06-28T06:26:08.490Z,22.70
2018-06-28T06:27:08.517Z,22.80
2018-06-28T06:28:05.262Z,22.80
2018-06-28T06:29:08.667Z,22.90
2018-06-28T06:30:05.285Z,22.90
2018-06-28T06:31:05.292Z,23.00
2018-06-28T06:32:11.192Z,23.10
2018-06-28T06:33:05.846Z,23.10
2018-06-28T06:34:10.662Z,23.20
2018-06-28T06:35:08.879Z,23.30
2018-06-28T06:36:05.750Z,23.30
2018-06-28T06:37:10.497Z,23.40
2018-06-28T06:38:06.239Z,23.40
2018-06-28T06:39:06.007Z,23.40
2018-06-28T06:40:05.624Z,23.40
2018-06-28T06:41:08.636Z,23.40
2018-06-28T06:42:10.229Z,23.40
2018-06-28T06:43:10.940Z,23.40
2018-06-28T06:44:08.672Z,23.40
2018-06-28T06:45:05.169Z,23.40
2018-06-28T06:46:05.747Z,23.40
2018-06-28T06:47:05.396Z,23.40
2018-06-28T06:48:05.900Z,23.50
2018-06-28T06:49:10.710Z,23.60
2018-06-28T06:50:10.423Z,23.70
2018-06-28T06:51:05.789Z,23.70
2018-06-28T06:52:05.483Z,23.80
2018-06-28T06:53:06.036Z,23.80
2018-06-28T06:54:05.738Z,23.80
2018-06-28T06:55:08.105Z,23.80
2018-06-28T06:56:08.116Z,23.80
2018-06-28T06:57:05.698Z,23.80
2018-06-28T06:58:07.799Z,23.80
2018-06-28T06:59:10.476Z,23.90
2018-06-28T07:00:07.721Z,23.90
2018-06-28T07:01:07.666Z,24.00
2018-06-28T07:02:05.192Z,24.00
2018-06-28T07:03:05.855Z,24.10
2018-06-28T07:04:05.638Z,24.10
2018-06-28T07:05:06.040Z,24.10
2018-06-28T07:06:11.034Z,24.20
2018-06-28T07:07:05.739Z,24.20
2018-06-28T07:08:08.005Z,24.30
2018-06-28T07:09:08.182Z,24.40
2018-06-28T07:10:05.827Z,24.40
2018-06-28T07:11:08.305Z,24.50
2018-06-28T07:12:05.720Z,24.50
2018-06-28T07:13:05.823Z,24.60
2018-06-28T07:14:08.174Z,24.60
2018-06-28T07:15:05.957Z,24.60
2018-06-28T07:16:10.832Z,24.60
2018-06-28T07:17:06.109Z,24.60
2018-06-28T07:18:08.356Z,24.70
2018-06-28T07:19:05.926Z,24.70
2018-06-28T07:20:05.572Z,24.70
2018-06-28T07:21:07.804Z,24.90
2018-06-28T07:22:05.416Z,24.80
2018-06-28T07:23:08.669Z,24.90
2018-06-28T07:24:05.460Z,24.90
2018-06-28T07:25:05.180Z,24.90
2018-06-28T07:26:11.007Z,24.90
2018-06-28T07:27:07.949Z,24.90
2018-06-28T07:28:05.471Z,25.00
2018-06-28T07:29:10.337Z,24.90
2018-06-28T07:30:08.318Z,24.90
2018-06-28T07:31:08.312Z,24.90
2018-06-28T07:32:08.321Z,24.90
2018-06-28T07:33:08.438Z,24.80
2018-06-28T07:34:05.224Z,24.80
2018-06-28T07:35:06.849Z,24.80
2018-06-28T07:36:05.380Z,24.90
2018-06-28T07:37:06.016Z,24.90
2018-06-28T07:38:08.144Z,24.90
2018-06-28T07:39:05.708Z,24.80
2018-06-28T07:40:07.941Z,24.90
2018-06-28T07:41:05.377Z,24.90
2018-06-28T07:42:05.851Z,24.90
2018-06-28T07:43:07.926Z,25.00
2018-06-28T07:44:06.085Z,25.00
2018-06-28T07:45:10.983Z,25.00
2018-06-28T07:46:08.116Z,25.10
2018-06-28T07:47:05.675Z,25.10
2018-06-28T07:48:13.021Z,25.10
2018-06-28T07:49:10.584Z,25.00
2018-06-28T07:50:05.183Z,25.00
2018-06-28T07:51:05.865Z,25.00
2018-06-28T07:52:05.671Z,24.90
2018-06-28T07:53:07.881Z,24.90
2018-06-28T07:54:08.061Z,24.80
2018-06-28T07:55:08.184Z,24.80
2018-06-28T07:56:05.685Z,24.80
2018-06-28T07:57:11.091Z,24.80
2018-06-28T07:58:05.591Z,24.80
2018-06-28T07:59:07.849Z,24.90
2018-06-28T08:00:08.012Z,24.80
2018-06-28T08:01:05.483Z,24.90
2018-06-28T08:02:05.317Z,24.90
2018-06-28T08:03:05.383Z,24.90
2018-06-28T08:04:11.099Z,24.90
2018-06-28T08:05:05.221Z,24.90
2018-06-28T08:06:07.859Z,24.90
2018-06-28T08:07:05.650Z,24.90
2018-06-28T08:08:08.616Z,24.90
2018-06-28T08:09:06.206Z,24.90
2018-06-28T08:10:05.929Z,24.90
2018-06-28T08:11:08.040Z,24.90
2018-06-28T08:12:08.346Z,25.00
2018-06-28T08:13:05.220Z,25.00
2018-06-28T08:14:06.006Z,25.00
2018-06-28T08:15:08.173Z,25.00
2018-06-28T08:16:05.756Z,25.10
2018-06-28T08:17:05.725Z,25.10
2018-06-28T08:18:05.710Z,25.10
2018-06-28T08:19:05.327Z,25.10
2018-06-28T08:20:10.864Z,25.00
2018-06-28T08:21:06.329Z,25.00
2018-06-28T08:22:11.180Z,24.90
2018-06-28T08:23:06.068Z,24.90
2018-06-28T08:24:05.488Z,24.90
2018-06-28T08:25:07.757Z,24.70
2018-06-28T08:26:05.171Z,24.70
2018-06-28T08:27:05.225Z,24.60
2018-06-28T08:28:06.128Z,24.60
2018-06-28T08:29:08.240Z,24.40
2018-06-28T08:30:05.735Z,24.40
2018-06-28T08:31:05.378Z,24.30
2018-06-28T08:32:05.997Z,24.20
2018-06-28T08:33:05.407Z,24.20
2018-06-28T08:34:05.781Z,24.20
2018-06-28T08:35:07.957Z,24.20
2018-06-28T08:36:10.545Z,24.20
2018-06-28T08:37:07.828Z,24.20
2018-06-28T08:38:08.167Z,24.20
2018-06-28T08:39:06.056Z,24.20
2018-06-28T08:40:08.334Z,24.20
2018-06-28T08:41:10.861Z,24.20
2018-06-28T08:42:05.668Z,24.20
2018-06-28T08:43:05.515Z,24.20
2018-06-28T08:44:10.333Z,24.20
2018-06-28T08:45:05.820Z,24.20
2018-06-28T08:46:05.874Z,24.20
2018-06-28T08:47:08.202Z,24.20
2018-06-28T08:48:05.745Z,24.20
2018-06-28T08:49:05.210Z,24.10
2018-06-28T08:50:08.716Z,24.10
2018-06-28T08:51:05.437Z,24.10
2018-06-28T08:52:08.169Z,24.10
2018-06-28T08:53:05.716Z,24.10
2018-06-28T08:54:05.393Z,24.10
2018-06-28T08:55:08.231Z,24.10
2018-06-28T08:56:07.987Z,24.00
2018-06-28T08:57:05.468Z,24.00
2018-06-28T08:58:05.258Z,24.00
2018-06-28T08:59:05.266Z,24.00
2018-06-28T09:00:06.054Z,24.00
2018-06-28T09:01:05.700Z,24.00
2018-06-28T09:02:05.634Z,24.00
2018-06-28T09:03:05.373Z,24.00
2018-06-28T09:04:08.506Z,24.10
2018-06-28T09:05:08.521Z,24.20
2018-06-28T09:06:05.983Z,24.20
2018-06-28T09:07:05.645Z,24.20
2018-06-28T09:08:05.290Z,24.30
2018-06-28T09:09:05.828Z,24.30
2018-06-28T09:10:05.648Z,24.30
2018-06-28T09:11:05.628Z,24.30
2018-06-28T09:12:10.656Z,24.30
2018-06-28T09:13:07.753Z,24.30
2018-06-28T09:14:06.047Z,24.30
2018-06-28T09:15:08.401Z,24.30
2018-06-28T09:16:10.971Z,24.30
2018-06-28T09:17:08.740Z,24.20
2018-06-28T09:18:07.765Z,24.20
2018-06-28T09:19:05.337Z,24.20
2018-06-28T09:20:05.970Z,24.20
2018-06-28T09:21:05.678Z,24.10
2018-06-28T09:22:05.691Z,24.10
2018-06-28T09:23:05.937Z,24.00
2018-06-28T09:24:05.349Z,24.00
2018-06-28T09:25:05.909Z,24.00
2018-06-28T09:26:05.548Z,24.00
2018-06-28T09:27:08.217Z,24.20
2018-06-28T09:28:05.268Z,24.10
2018-06-28T09:29:05.893Z,24.30
2018-06-28T09:30:08.495Z,24.40
2018-06-28T09:31:08.556Z,24.50
2018-06-28T09:32:05.911Z,24.50
2018-06-28T09:33:08.138Z,24.60
2018-06-28T09:34:05.745Z,24.60
2018-06-28T09:35:05.513Z,24.70
2018-06-28T09:36:05.503Z,24.80
2018-06-28T09:37:07.770Z,24.90
2018-06-28T09:38:07.717Z,24.90
2018-06-28T09:39:05.511Z,24.90
2018-06-28T09:40:05.112Z,24.80
2018-06-28T09:41:05.763Z,24.80
2018-06-28T09:42:05.617Z,24.80
2018-06-28T09:43:07.760Z,24.80
2018-06-28T09:44:05.269Z,24.80
2018-06-28T09:45:08.025Z,24.70
2018-06-28T09:46:05.528Z,24.70
2018-06-28T09:47:10.295Z,24.70
2018-06-28T09:48:05.634Z,24.70
2018-06-28T09:49:05.322Z,24.70
2018-06-28T09:50:05.998Z,24.70
2018-06-28T09:51:10.770Z,24.60
2018-06-28T09:52:05.949Z,24.60
2018-06-28T09:53:10.796Z,24.60
2018-06-28T09:54:05.311Z,24.60
2018-06-28T09:55:08.636Z,24.60
2018-06-28T09:56:05.266Z,24.60
2018-06-28T09:57:05.639Z,24.70
2018-06-28T09:58:05.813Z,24.80
2018-06-28T09:59:05.460Z,24.90
2018-06-28T10:00:06.010Z,25.00
2018-06-28T10:01:13.658Z,25.20
2018-06-28T10:02:06.311Z,25.20
2018-06-28T10:03:11.058Z,25.30
2018-06-28T10:04:05.635Z,25.30
2018-06-28T10:05:05.705Z,25.40
2018-06-28T10:06:05.475Z,25.50
2018-06-28T10:07:06.142Z,25.50
2018-06-28T10:08:05.968Z,25.50
2018-06-28T10:09:06.055Z,25.50
2018-06-28T10:10:08.357Z,25.50
2018-06-28T10:11:06.488Z,25.50
2018-06-28T10:12:07.710Z,25.50
2018-06-28T10:13:06.506Z,25.50
2018-06-28T10:14:07.826Z,25.40
2018-06-28T10:15:07.886Z,25.30
2018-06-28T10:16:10.456Z,25.30
2018-06-28T10:17:06.121Z,25.30
2018-06-28T10:18:08.575Z,25.20
2018-06-28T10:19:07.700Z,25.10
2018-06-28T10:20:07.840Z,25.00
2018-06-28T10:21:05.426Z,25.00
2018-06-28T10:22:10.443Z,24.90
2018-06-28T10:23:05.532Z,24.90
2018-06-28T10:24:10.355Z,24.90
2018-06-28T10:25:05.972Z,24.80
2018-06-28T10:26:11.059Z,24.70
2018-06-28T10:27:08.041Z,24.60
2018-06-28T10:28:06.124Z,24.60
2018-06-28T10:29:05.860Z,24.60
2018-06-28T10:30:10.957Z,24.50
2018-06-28T10:31:05.418Z,24.50
2018-06-28T10:32:06.264Z,24.50
2018-06-28T10:33:05.871Z,24.50
2018-06-28T10:34:05.981Z,24.50
2018-06-28T10:35:08.561Z,24.40
2018-06-28T10:36:11.047Z,24.40
2018-06-28T10:37:05.545Z,24.50
2018-06-28T10:38:07.730Z,24.40
2018-06-28T10:39:05.154Z,24.40
2018-06-28T10:40:05.243Z,24.40
2018-06-28T10:41:06.027Z,24.40
2018-06-28T10:42:05.604Z,24.50
2018-06-28T10:43:07.793Z,24.60
2018-06-28T10:44:10.428Z,24.60
2018-06-28T10:45:08.616Z,24.60
2018-06-28T10:46:05.229Z,24.60
2018-06-28T10:47:06.090Z,24.70
2018-06-28T10:48:06.197Z,24.70
2018-06-28T10:49:11.985Z,24.70
2018-06-28T10:50:05.421Z,24.80
2018-06-28T10:51:05.953Z,24.80
2018-06-28T10:52:06.926Z,24.80
2018-06-28T10:53:05.733Z,24.80
2018-06-28T10:54:08.076Z,24.80
2018-06-28T10:55:05.776Z,24.80
2018-06-28T10:56:05.438Z,24.80
2018-06-28T10:57:05.484Z,24.80
2018-06-28T10:58:05.597Z,24.70
2018-06-28T10:59:05.252Z,24.70
2018-06-28T11:00:07.692Z,24.60
2018-06-28T11:01:05.539Z,24.60
2018-06-28T11:02:10.318Z,24.50
2018-06-28T11:03:05.774Z,24.50
2018-06-28T11:04:05.816Z,24.50
2018-06-28T11:05:05.438Z,24.60
2018-06-28T11:06:07.023Z,24.50
2018-06-28T11:07:08.192Z,24.50
2018-06-28T11:08:05.724Z,24.50
2018-06-28T11:09:05.695Z,24.50
2018-06-28T11:10:05.770Z,24.50
2018-06-28T11:11:10.608Z,24.50
2018-06-28T11:12:06.093Z,24.50
2018-06-28T11:13:08.335Z,24.50
2018-06-28T11:14:06.100Z,24.60
2018-06-28T11:15:06.196Z,24.50
2018-06-28T11:16:05.572Z,24.50
2018-06-28T11:17:05.419Z,24.60
2018-06-28T11:18:06.175Z,24.60
2018-06-28T11:19:08.359Z,24.50
2018-06-28T11:20:10.888Z,24.50
2018-06-28T11:21:08.357Z,24.50
2018-06-28T11:22:06.060Z,24.60
2018-06-28T11:23:11.002Z,24.60
2018-06-28T11:24:08.637Z,24.70
2018-06-28T11:25:10.464Z,24.60
2018-06-28T11:26:11.053Z,24.70
2018-06-28T11:27:05.380Z,24.70
2018-06-28T11:28:06.269Z,24.80
2018-06-28T11:29:05.991Z,24.80
2018-06-28T11:30:05.822Z,24.70
2018-06-28T11:31:05.380Z,24.70
2018-06-28T11:32:05.348Z,24.70
2018-06-28T11:33:08.528Z,24.70
2018-06-28T11:34:06.080Z,24.70
2018-06-28T11:35:06.023Z,24.70
2018-06-28T11:36:10.808Z,24.80
2018-06-28T11:37:05.419Z,24.70
2018-06-28T11:38:05.985Z,24.80
2018-06-28T11:39:05.589Z,24.80
2018-06-28T11:40:08.029Z,24.80
2018-06-28T11:41:05.353Z,24.80
2018-06-28T11:42:05.373Z,24.80
2018-06-28T11:43:05.533Z,24.70
2018-06-28T11:44:05.231Z,24.80
2018-06-28T11:45:13.572Z,24.70
2018-06-28T11:46:06.324Z,24.60
2018-06-28T11:47:05.470Z,24.70
2018-06-28T11:48:08.692Z,24.60
2018-06-28T11:49:05.356Z,24.60
2018-06-28T11:50:06.020Z,24.70
2018-06-28T11:51:10.748Z,24.60
2018-06-28T11:52:10.955Z,24.60
2018-06-28T11:53:13.248Z,24.60
2018-06-28T11:54:05.721Z,24.70
2018-06-28T11:55:10.309Z,24.80
2018-06-28T11:56:10.881Z,24.80
2018-06-28T11:57:06.125Z,24.80
2018-06-28T11:58:05.328Z,24.80
2018-06-28T11:59:05.446Z,24.90
2018-06-28T12:00:08.650Z,24.90
2018-06-28T12:01:06.086Z,24.90
2018-06-28T12:02:10.493Z,24.90
2018-06-28T12:03:06.205Z,24.90
2018-06-28T12:04:05.674Z,24.90
2018-06-28T12:05:06.089Z,24.90
2018-06-28T12:06:08.264Z,24.80
2018-06-28T12:07:08.336Z,24.70
2018-06-28T12:08:05.831Z,24.70
2018-06-28T12:09:10.593Z,24.60
2018-06-28T12:10:05.239Z,24.60
2018-06-28T12:11:05.451Z,24.50
2018-06-28T12:12:05.346Z,24.50
2018-06-28T12:13:08.003Z,24.40
2018-06-28T12:14:08.137Z,24.40
2018-06-28T12:15:05.582Z,24.40
2018-06-28T12:16:05.850Z,24.30
2018-06-28T12:17:05.815Z,24.40
2018-06-28T12:18:05.505Z,24.30
2018-06-28T12:19:05.267Z,24.30
2018-06-28T12:20:05.188Z,24.20
2018-06-28T12:21:08.416Z,24.20
2018-06-28T12:22:08.352Z,24.20
2018-06-28T12:23:08.320Z,24.20
2018-06-28T12:24:05.596Z,24.20
2018-06-28T12:25:05.272Z,24.20
2018-06-28T12:26:10.674Z,24.20
2018-06-28T12:27:06.069Z,24.20
2018-06-28T12:28:05.775Z,24.20
2018-06-28T12:29:07.885Z,24.20
2018-06-28T12:30:05.478Z,24.20
2018-06-28T12:31:05.423Z,24.20
2018-06-28T12:32:05.358Z,24.20
2018-06-28T12:33:06.018Z,24.30
2018-06-28T12:34:05.667Z,24.40
2018-06-28T12:35:05.878Z,24.40
2018-06-28T12:36:06.046Z,24.40
2018-06-28T12:37:08.256Z,24.50
2018-06-28T12:38:10.874Z,24.40
2018-06-28T12:39:05.281Z,24.50
2018-06-28T12:40:06.306Z,24.50
2018-06-28T12:41:08.442Z,24.50
2018-06-28T12:42:05.920Z,24.50
2018-06-28T12:43:10.671Z,24.50
2018-06-28T12:44:10.408Z,24.50
2018-06-28T12:45:08.315Z,24.50
2018-06-28T12:46:05.850Z,24.50
2018-06-28T12:47:05.491Z,24.50
2018-06-28T12:48:06.923Z,24.50
2018-06-28T12:49:05.564Z,24.50
2018-06-28T12:50:05.450Z,24.40
2018-06-28T12:51:06.147Z,24.40
2018-06-28T12:52:05.716Z,24.40